Time;durP1;ratioP1;P1;durP2;ratioP2;P2;SDS_P1;SDS_P2;PMS_P1;PMS_P2;Temp;Humidity;BMP_temperature;BMP_pressure;BME280_temperature;BME280_humidity;BME280_pressure;Samples;Min_cycle;Max_cycle;Signal;HPM_P1;HPM_P2
2022/03/18 00:00:41;;;;;;;10.80;5.63;;;;;;;6.00;74.96;103426.72;5057995;28;20312;-65
2022/03/18 00:03:06;;;;;;;14.03;6.90;;;;;;;6.10;74.74;103425.69;5058000;28;20181;-64
2022/03/18 00:05:32;;;;;;;13.77;6.33;;;;;;;6.19;74.29;103432.41;5058322;28;20174;-64
2022/03/18 00:07:57;;;;;;;20.03;6.90;;;;;;;5.86;74.73;103438.66;5057945;28;20177;-65
2022/03/18 00:10:23;;;;;;;17.23;7.80;;;;;;;6.04;74.67;103434.81;5056769;28;20427;-65
2022/03/18 00:12:52;;;;;;;14.70;6.33;;;;;;;5.81;74.99;103445.16;5058083;28;20523;-65
2022/03/18 00:15:17;;;;;;;17.00;6.10;;;;;;;5.69;75.19;103450.34;5057823;28;20252;-67
2022/03/18 00:17:42;;;;;;;14.57;6.97;;;;;;;5.97;74.59;103448.06;5057574;28;20566;-65
2022/03/18 00:20:09;;;;;;;19.00;7.40;;;;;;;5.92;74.33;103446.84;5058245;28;20184;-66
2022/03/18 00:22:35;;;;;;;15.63;7.03;;;;;;;5.64;75.09;103455.19;5057904;28;20617;-65
2022/03/18 00:25:00;;;;;;;27.93;12.10;;;;;;;5.85;74.79;103449.78;5057531;28;20454;-65
2022/03/18 00:27:29;;;;;;;24.27;7.40;;;;;;;5.67;74.93;103452.81;5057936;28;20162;-65
2022/03/18 00:29:56;;;;;;;19.23;7.10;;;;;;;5.72;74.81;103454.06;5057598;28;20256;-64
2022/03/18 00:32:22;;;;;;;17.83;6.93;;;;;;;5.58;75.26;103454.72;5056943;28;20430;-65
2022/03/18 00:34:47;;;;;;;16.07;8.27;;;;;;;5.77;74.88;103451.81;5058211;28;20397;-65
2022/03/18 00:37:13;;;;;;;23.90;7.27;;;;;;;5.80;75.05;103452.03;5057592;28;20727;-65
2022/03/18 00:39:38;;;;;;;15.07;7.10;;;;;;;7.07;78.50;103443.66;5057383;28;20185;-59
2022/03/18 00:42:04;;;;;;;18.53;8.70;;;;;;;7.72;68.18;103447.03;5057827;28;20181;-66
2022/03/18 00:44:29;;;;;;;13.90;6.37;;;;;;;6.61;70.56;103452.56;5057522;28;20224;-66
2022/03/18 00:46:54;;;;;;;13.83;5.93;;;;;;;6.31;72.38;103455.69;5057609;28;20570;-66
2022/03/18 00:52:05;;;;;;;18.77;7.10;;;;;;;5.98;73.26;103462.88;5057579;28;20600;-67
2022/03/18 00:54:42;;;;;;;17.80;6.60;;;;;;;5.98;73.82;103464.53;5057592;28;20416;-67
2022/03/18 00:57:08;;;;;;;17.03;7.13;;;;;;;5.96;74.03;103463.50;5057515;28;20502;-66
2022/03/18 00:59:33;;;;;;;20.77;9.10;;;;;;;5.88;73.47;103460.34;5057318;28;20444;-65
2022/03/18 01:01:59;;;;;;;20.83;8.50;;;;;;;6.03;72.98;103468.38;5057297;28;20555;-67
2022/03/18 01:04:25;;;;;;;19.23;7.67;;;;;;;5.87;73.35;103467.22;5057423;28;20256;-65
2022/03/18 01:06:52;;;;;;;16.13;7.70;;;;;;;5.81;73.92;103473.66;5057251;28;20174;-67
2022/03/18 01:09:18;;;;;;;15.53;6.93;;;;;;;5.77;74.03;103474.22;5057350;28;20411;-67
2022/03/18 01:11:44;;;;;;;19.87;7.37;;;;;;;5.44;74.47;103476.09;5057444;28;20430;-66
2022/03/18 01:14:09;;;;;;;17.60;6.93;;;;;;;5.69;74.27;103489.16;5057848;28;20725;-66
2022/03/18 01:16:35;;;;;;;19.40;7.30;;;;;;;5.61;74.41;103488.59;5057440;28;20531;-66
2022/03/18 01:19:00;;;;;;;18.47;8.20;;;;;;;5.65;74.45;103488.03;5057327;28;20173;-65
2022/03/18 01:21:26;;;;;;;20.23;7.53;;;;;;;5.33;75.10;103485.63;5057973;28;20516;-66
2022/03/18 01:23:51;;;;;;;19.87;7.40;;;;;;;5.61;74.99;103486.00;5059887;28;20173;-65
2022/03/18 01:26:17;;;;;;;15.73;7.50;;;;;;;5.88;73.98;103487.13;5060937;28;20200;-66
2022/03/18 01:28:42;;;;;;;19.00;7.33;;;;;;;5.74;73.45;103493.00;5061106;28;20172;-66
2022/03/18 01:31:07;;;;;;;20.50;8.57;;;;;;;5.48;74.80;103485.88;5060685;28;20177;-66
2022/03/18 01:33:34;;;;;;;9.80;7.07;;;;;;;5.51;74.52;103491.31;5060674;28;20184;-67
2022/03/18 01:35:59;;;;;;;14.77;6.93;;;;;;;5.39;74.80;103491.28;5061441;28;20535;-65
2022/03/18 01:38:25;;;;;;;15.93;7.53;;;;;;;5.27;75.08;103491.25;5060416;28;20512;-65
2022/03/18 01:40:51;;;;;;;18.10;7.60;;;;;;;5.05;75.22;103488.72;5060640;28;20173;-66
2022/03/18 01:43:17;;;;;;;17.03;7.03;;;;;;;4.97;76.91;103495.88;5060154;28;20259;-66
2022/03/18 01:45:42;;;;;;;17.20;7.80;;;;;;;4.85;76.46;103494.94;5060438;28;20785;-66
2022/03/18 01:48:07;;;;;;;19.17;6.90;;;;;;;4.94;76.31;103495.66;5060237;28;20169;-67
2022/03/18 01:50:33;;;;;;;16.17;6.93;;;;;;;5.09;76.39;103493.34;5060896;28;20177;-66
2022/03/18 01:52:59;;;;;;;17.27;7.53;;;;;;;5.12;77.08;103500.44;5060244;28;20177;-66
2022/03/18 01:55:25;;;;;;;15.07;6.63;;;;;;;4.91;77.10;103508.31;5060077;28;20197;-67
2022/03/18 01:57:50;;;;;;;22.73;7.60;;;;;;;5.21;75.97;103511.47;5060415;28;20901;-66
2022/03/18 02:00:18;;;;;;;17.10;7.00;;;;;;;4.71;76.92;103507.66;5060135;28;20287;-66
2022/03/18 02:02:44;;;;;;;25.97;7.33;;;;;;;4.77;77.78;103511.53;5059997;28;20185;-66
2022/03/18 02:05:10;;;;;;;21.90;6.97;;;;;;;4.80;76.88;103509.16;5060660;28;20419;-66
2022/03/18 02:07:36;;;;;;;14.23;7.40;;;;;;;5.12;76.90;103511.66;5059930;28;20178;-66
2022/03/18 02:10:02;;;;;;;20.67;6.97;;;;;;;4.91;76.47;103517.75;5060139;28;20181;-66
2022/03/18 02:12:27;;;;;;;13.90;6.90;;;;;;;5.19;76.26;103518.22;5059646;28;20408;-66
2022/03/18 02:14:53;;;;;;;14.13;6.73;;;;;;;5.30;75.18;103519.91;5059901;28;20828;-66
2022/03/18 02:17:18;;;;;;;11.73;8.20;;;;;;;5.36;74.90;103527.28;5059806;28;20589;-67
2022/03/18 02:19:45;;;;;;;18.77;7.63;;;;;;;5.23;74.44;103526.31;5060143;28;20165;-65
2022/03/18 02:22:25;;;;;;;13.57;7.87;;;;;;;5.14;75.06;103533.38;5059829;28;20170;-66
2022/03/18 02:24:52;;;;;;;12.80;7.33;;;;;;;5.34;74.18;103524.53;5059772;28;20407;-66
2022/03/18 02:27:19;;;;;;;18.83;8.40;;;;;;;5.25;74.78;103522.94;5059869;28;20686;-67
2022/03/18 02:29:45;;;;;;;12.80;7.67;;;;;;;5.08;74.49;103539.75;5060860;28;20415;-66
2022/03/18 02:32:11;;;;;;;20.07;7.70;;;;;;;5.00;75.91;103542.63;5060239;28;20431;-66
2022/03/18 02:34:39;;;;;;;16.93;7.40;;;;;;;5.27;74.86;103527.44;5059310;28;20495;-66
2022/03/18 02:37:05;;;;;;;16.27;8.33;;;;;;;5.14;74.75;103529.88;5059444;28;20910;-66
2022/03/18 02:39:30;;;;;;;16.20;7.80;;;;;;;5.31;74.75;103531.19;5059849;28;20499;-65
2022/03/18 02:41:56;;;;;;;13.30;7.10;;;;;;;5.32;74.50;103536.47;5059270;28;20419;-65
2022/03/18 02:44:21;;;;;;;13.20;8.00;;;;;;;5.23;74.54;103553.88;5059352;28;20264;-66
2022/03/18 02:46:46;;;;;;;20.67;8.87;;;;;;;5.28;74.83;103543.88;5059762;28;20165;-66
2022/03/18 02:49:12;;;;;;;21.23;8.80;;;;;;;5.34;74.60;103545.22;5059139;28;20188;-65
2022/03/18 02:51:37;;;;;;;14.00;7.87;;;;;;;5.30;73.86;103548.38;5059276;28;20184;-66
2022/03/18 02:54:06;;;;;;;13.30;8.63;;;;;;;4.98;75.09;103549.38;5059661;28;20251;-67
2022/03/18 02:56:32;;;;;;;16.60;8.80;;;;;;;4.63;76.11;103554.38;5059067;28;20206;-66
2022/03/18 02:59:00;;;;;;;20.90;8.30;;;;;;;4.93;76.80;103566.22;5059000;28;20879;-66
2022/03/18 03:01:27;;;;;;;16.60;9.27;;;;;;;5.18;75.75;103562.94;5058971;28;20483;-65
2022/03/18 03:03:53;;;;;;;14.63;8.93;;;;;;;5.13;75.45;103572.94;5059142;28;20412;-65
2022/03/18 03:09:02;;;;;;;14.23;9.07;;;;;;;4.79;76.36;103569.38;5058691;28;20268;-65
2022/03/18 03:11:28;;;;;;;15.80;9.57;;;;;;;5.29;74.97;103556.00;5058768;28;20511;-65
2022/03/18 03:13:54;;;;;;;22.33;10.33;;;;;;;4.90;75.38;103571.16;5058779;28;20197;-66
2022/03/18 03:16:19;;;;;;;11.17;8.93;;;;;;;5.11;75.72;103571.03;5057773;28;20868;-66
2022/03/18 03:18:46;;;;;;;15.93;9.50;;;;;;;4.89;75.24;103577.09;5058914;28;20205;-66
2022/03/18 03:21:11;;;;;;;21.17;10.07;;;;;;;4.75;76.25;103577.69;5058663;28;20170;-66
2022/03/18 03:23:36;;;;;;;14.87;8.47;;;;;;;4.87;76.15;103568.31;5058686;28;20420;-66
2022/03/18 03:26:02;;;;;;;14.60;9.50;;;;;;;4.78;76.82;103577.94;5058801;28;20216;-66
2022/03/18 03:28:27;;;;;;;17.57;9.00;;;;;;;4.83;76.13;103579.19;5057650;28;20169;-66
2022/03/18 03:30:53;;;;;;;16.77;9.33;;;;;;;4.92;75.89;103579.91;5058562;28;20524;-65
2022/03/18 03:33:18;;;;;;;23.60;9.33;;;;;;;5.03;74.79;103573.94;5058873;28;20172;-66
2022/03/18 03:35:44;;;;;;;21.87;9.77;;;;;;;5.36;74.63;103582.47;5058504;28;20181;-66
2022/03/18 03:38:10;;;;;;;21.50;9.50;;;;;;;5.31;74.55;103593.25;5058236;28;20583;-65
2022/03/18 03:40:36;;;;;;;19.70;10.30;;;;;;;5.29;74.12;103592.22;5058791;28;20252;-65
2022/03/18 03:43:01;;;;;;;18.77;10.60;;;;;;;4.95;74.41;103590.53;5058284;28;20276;-66
2022/03/18 03:45:26;;;;;;;15.93;9.50;;;;;;;5.07;74.24;103595.72;5057862;28;20427;-66
2022/03/18 03:47:52;;;;;;;24.37;10.80;;;;;;;5.02;74.82;103608.31;5059004;28;20178;-65
2022/03/18 03:50:17;;;;;;;20.27;9.10;;;;;;;5.04;74.88;103614.50;5058134;28;20274;-66
2022/03/18 03:52:43;;;;;;;17.00;9.57;;;;;;;5.13;74.64;103611.75;5058234;28;20256;-66
2022/03/18 03:55:10;;;;;;;13.07;9.80;;;;;;;5.12;74.26;103614.22;5058560;28;20215;-66
2022/03/18 03:57:35;;;;;;;16.30;10.37;;;;;;;5.01;74.73;103622.00;5057802;28;20519;-66
2022/03/18 04:00:01;;;;;;;19.73;9.73;;;;;;;5.13;74.49;103623.75;5057995;28;20427;-66
2022/03/18 04:02:29;;;;;;;15.87;11.07;;;;;;;5.20;74.42;103623.47;5057994;28;20556;-66
2022/03/18 04:04:57;;;;;;;20.03;10.60;;;;;;;4.81;74.73;103633.34;5057481;28;20174;-65
2022/03/18 04:07:22;;;;;;;14.90;10.90;;;;;;;5.12;74.30;103625.44;5058425;28;20420;-66
2022/03/18 04:09:49;;;;;;;16.23;9.20;;;;;;;5.15;74.45;103619.63;5057931;28;20420;-65
2022/03/18 04:12:14;;;;;;;22.10;11.13;;;;;;;5.09;74.37;103634.63;5058048;28;20189;-65
2022/03/18 04:14:40;;;;;;;24.83;10.77;;;;;;;5.11;74.19;103635.66;5057611;28;20795;-65
2022/03/18 04:17:06;;;;;;;20.90;11.90;;;;;;;5.30;73.79;103638.91;5057901;28;20201;-65
2022/03/18 04:19:31;;;;;;;22.23;11.10;;;;;;;5.16;73.67;103640.41;5057722;28;20809;-65
2022/03/18 04:21:56;;;;;;;21.90;12.20;;;;;;;5.27;73.92;103648.13;5058549;28;20173;-65
2022/03/18 04:24:22;;;;;;;18.77;11.20;;;;;;;5.19;73.61;103642.34;5057926;28;20185;-66
2022/03/18 04:26:47;;;;;;;16.77;11.70;;;;;;;5.47;73.77;103639.34;5058381;28;20173;-65
2022/03/18 04:29:13;;;;;;;18.50;10.50;;;;;;;5.25;73.25;103650.59;5058711;28;20565;-65
2022/03/18 04:31:39;;;;;;;17.50;10.60;;;;;;;5.04;74.38;103658.44;5057788;28;20170;-65
2022/03/18 04:34:04;;;;;;;24.10;12.17;;;;;;;5.10;74.77;103658.06;5057121;28;20173;-66
2022/03/18 04:36:30;;;;;;;19.60;10.90;;;;;;;5.14;74.55;103656.59;5058426;28;20454;-65
2022/03/18 04:38:55;;;;;;;20.33;11.63;;;;;;;4.98;74.85;103660.56;5057503;28;20445;-65
2022/03/18 04:41:20;;;;;;;20.07;12.27;;;;;;;5.10;74.85;103657.13;5057851;28;20189;-65
2022/03/18 04:43:46;;;;;;;19.00;11.93;;;;;;;5.18;74.35;103661.22;5058579;28;20256;-66
2022/03/18 04:46:11;;;;;;;16.23;11.87;;;;;;;5.05;74.23;103664.53;5057770;28;20178;-65
2022/03/18 04:48:37;;;;;;;23.03;12.00;;;;;;;5.17;74.41;103674.97;5056794;28;20178;-65
2022/03/18 04:51:02;;;;;;;16.83;11.37;;;;;;;5.37;73.74;103669.66;5058125;28;20201;-66
2022/03/18 04:53:27;;;;;;;22.27;12.60;;;;;;;5.21;73.74;103675.31;5057573;28;20189;-65
2022/03/18 04:55:52;;;;;;;15.20;10.73;;;;;;;4.95;74.12;103682.66;5057453;28;20200;-65
2022/03/18 04:58:18;;;;;;;15.97;12.47;;;;;;;5.08;73.88;103680.28;5061214;28;20300;-65
2022/03/18 05:00:43;;;;;;;26.70;11.77;;;;;;;4.85;74.95;103686.19;5061322;28;20228;-66
2022/03/18 05:03:10;;;;;;;31.60;11.40;;;;;;;4.98;74.83;103695.84;5060624;28;20178;-66
2022/03/18 05:05:37;;;;;;;27.77;11.60;;;;;;;4.81;75.19;103702.25;5061781;28;20439;-65
2022/03/18 05:08:03;;;;;;;24.43;12.20;;;;;;;5.12;74.62;103703.03;5061117;28;20430;-65
2022/03/18 05:10:29;;;;;;;24.70;10.30;;;;;;;5.15;74.48;103707.53;5061169;28;20541;-66
2022/03/18 05:12:55;;;;;;;14.20;11.70;;;;;;;5.01;74.70;103709.91;5062066;28;20523;-66
2022/03/18 05:15:21;;;;;;;16.20;10.80;;;;;;;5.22;74.63;103715.91;5061054;28;20188;-66
2022/03/18 05:17:51;;;;;;;19.43;11.30;;;;;;;4.99;74.73;103720.91;5060745;28;20729;-66
2022/03/18 05:20:18;;;;;;;17.20;10.30;;;;;;;5.17;74.40;103730.16;5060814;28;20166;-65
2022/03/18 05:22:45;;;;;;;18.43;10.67;;;;;;;5.10;74.72;103729.53;5060316;28;20477;-66
2022/03/18 05:25:12;;;;;;;17.23;11.27;;;;;;;4.98;74.38;103734.63;5060897;28;20423;-66
2022/03/18 05:27:41;;;;;;;17.00;11.33;;;;;;;5.03;74.80;103741.06;5061014;28;20415;-65
2022/03/18 05:30:12;;;;;;;13.77;10.40;;;;;;;5.27;74.10;103744.72;5060779;28;20412;-65
2022/03/18 05:32:37;;;;;;;20.70;11.50;;;;;;;5.21;74.12;103742.56;5061038;28;20482;-66
2022/03/18 05:35:04;;;;;;;22.57;12.77;;;;;;;5.13;74.38;103751.38;5061183;28;20412;-66
2022/03/18 05:37:29;;;;;;;19.00;12.53;;;;;;;5.20;74.37;103758.84;5060615;28;20217;-66
2022/03/18 05:39:55;;;;;;;23.70;11.90;;;;;;;5.59;73.73;103755.81;5060698;28;20412;-65
2022/03/18 05:42:20;;;;;;;21.43;11.37;;;;;;;5.51;73.38;103755.22;5060858;28;20184;-66
2022/03/18 05:44:45;;;;;;;25.03;12.37;;;;;;;5.26;73.66;103762.72;5060620;28;20201;-66
2022/03/18 05:47:11;;;;;;;15.67;7.73;;;;;;;9.15;77.00;103763.88;5060365;28;20177;-58
2022/03/18 05:49:36;;;;;;;18.37;9.57;;;;;;;10.94;62.98;103748.56;5060888;28;20169;-71
2022/03/18 05:52:01;;;;;;;14.90;9.60;;;;;;;8.14;63.42;103761.53;5060284;28;20558;-67
2022/03/18 05:54:26;;;;;;;14.60;8.80;;;;;;;7.12;66.13;103769.94;5060249;28;20566;-67
2022/03/18 05:56:55;;;;;;;16.73;9.20;;;;;;;6.19;68.82;103776.94;5060401;28;20424;-66
2022/03/18 05:59:26;;;;;;;15.77;8.67;;;;;;;6.86;68.45;103774.13;5060062;28;20414;-66
2022/03/18 06:01:52;;;;;;;13.50;9.63;;;;;;;6.33;69.80;103784.88;5060066;28;20474;-66
2022/03/18 06:04:18;;;;;;;14.57;10.70;;;;;;;6.21;70.44;103790.94;5042574;28;20497;-66
2022/03/18 06:06:44;;;;;;;20.37;10.53;;;;;;;6.67;69.26;103784.81;5060233;28;20424;-66
2022/03/18 06:11:57;;;;;;;15.77;11.77;;;;;;;6.52;69.72;103784.56;5059976;28;20820;-66
2022/03/18 06:14:27;;;;;;;19.67;13.97;;;;;;;6.62;69.63;103779.28;5060215;28;20412;-66
2022/03/18 06:16:56;;;;;;;21.10;14.93;;;;;;;6.53;70.18;103795.03;5059202;28;20210;-67
2022/03/18 06:19:23;;;;;;;17.23;13.63;;;;;;;6.47;69.93;103793.69;5059766;28;20438;-66
2022/03/18 06:21:48;;;;;;;16.60;11.90;;;;;;;6.58;69.88;103792.81;5059709;28;20499;-66
2022/03/18 06:24:15;;;;;;;19.97;12.57;;;;;;;6.80;69.46;103795.31;5059731;28;20507;-67
2022/03/18 06:26:40;;;;;;;19.70;11.60;;;;;;;6.67;70.08;103797.78;5062275;28;20178;-66
2022/03/18 06:29:06;;;;;;;15.73;10.67;;;;;;;7.01;68.25;103800.28;5060705;28;20431;-66
2022/03/18 06:31:32;;;;;;;16.63;10.43;;;;;;;6.78;69.29;103798.59;5058915;28;20416;-66
2022/03/18 06:33:58;;;;;;;20.13;10.67;;;;;;;6.88;69.14;103801.97;5060148;28;20165;-66
2022/03/18 06:36:23;;;;;;;12.83;10.40;;;;;;;6.66;69.01;103802.06;5059584;28;20957;-67
2022/03/18 06:38:49;;;;;;;14.47;10.63;;;;;;;7.05;68.64;103808.41;5059358;28;20295;-66
2022/03/18 06:41:16;;;;;;;16.43;11.20;;;;;;;7.40;67.68;103807.50;5059993;28;20193;-65
2022/03/18 06:43:42;;;;;;;17.67;10.93;;;;;;;7.35;67.51;103810.56;5059246;28;20173;-66
2022/03/18 06:46:07;;;;;;;16.20;12.10;;;;;;;7.33;67.93;103807.81;5059133;28;20755;-66
2022/03/18 06:48:33;;;;;;;15.67;12.00;;;;;;;7.82;67.20;103810.44;5059751;28;20161;-66
2022/03/18 06:50:59;;;;;;;13.23;11.07;;;;;;;7.66;66.69;103816.25;5059076;28;20178;-67
2022/03/18 06:53:25;;;;;;;14.37;11.43;;;;;;;7.89;66.13;103827.38;5059275;28;20215;-67
2022/03/18 06:55:50;;;;;;;15.83;10.20;;;;;;;7.69;66.98;103821.66;5059689;28;20704;-66
2022/03/18 06:58:15;;;;;;;14.67;10.97;;;;;;;7.65;66.77;103821.34;5058856;28;20205;-66
2022/03/18 07:00:41;;;;;;;16.60;10.43;;;;;;;7.61;66.80;103822.81;5058921;28;20230;-66
2022/03/18 07:03:06;;;;;;;17.63;10.83;;;;;;;7.57;66.99;103821.66;5058459;28;20178;-66
2022/03/18 07:05:32;;;;;;;15.87;11.63;;;;;;;7.58;66.77;103822.59;5058824;28;20185;-65
2022/03/18 07:07:58;;;;;;;13.40;9.53;;;;;;;7.56;67.27;103822.50;5058836;28;20252;-67
2022/03/18 07:10:24;;;;;;;16.80;10.23;;;;;;;7.59;67.22;103832.19;5059553;28;20424;-64
2022/03/18 07:12:49;;;;;;;10.63;9.30;;;;;;;7.70;67.05;103828.66;5059192;28;20835;-64
2022/03/18 07:15:14;;;;;;;14.47;9.20;;;;;;;7.90;66.05;103834.34;5058696;28;20188;-66
2022/03/18 07:17:55;;;;;;;20.83;9.60;;;;;;;7.94;65.56;103828.56;5058839;28;20571;-67
2022/03/18 07:20:22;;;;;;;13.73;9.60;;;;;;;8.27;65.35;103837.81;5057733;28;20222;-67
2022/03/18 07:23:04;;;;;;;14.60;9.10;;;;;;;8.05;65.39;103852.72;5058687;28;20724;-67
2022/03/18 07:25:30;;;;;;;16.83;8.53;;;;;;;8.03;65.67;103856.91;5058621;28;20420;-66
2022/03/18 07:27:56;;;;;;;16.50;9.00;;;;;;;8.08;65.16;103848.66;5058372;28;20503;-67
2022/03/18 07:30:22;;;;;;;8.23;7.17;;;;;;;7.84;65.98;103859.91;5058576;28;20499;-66
2022/03/18 07:32:47;;;;;;;14.13;8.03;;;;;;;7.98;65.63;103861.75;5057991;28;20432;-67
2022/03/18 07:35:14;;;;;;;14.50;8.90;;;;;;;8.51;64.47;103866.34;5058409;28;20189;-67
2022/03/18 07:37:40;;;;;;;13.13;8.00;;;;;;;8.83;63.00;103864.13;5057507;28;20217;-66
2022/03/18 07:40:07;;;;;;;9.70;7.13;;;;;;;9.44;60.06;103852.56;5057637;28;20452;-67
2022/03/18 07:42:49;;;;;;;11.13;7.57;;;;;;;9.57;59.99;103859.44;5057983;28;20785;-67
2022/03/18 07:45:19;;;;;;;9.70;7.40;;;;;;;9.56;60.68;103854.13;5055467;28;20900;-67
2022/03/18 07:47:44;;;;;;;10.90;7.00;;;;;;;9.51;60.53;103852.94;5058205;28;20467;-66
2022/03/18 07:50:10;;;;;;;17.37;8.17;;;;;;;9.08;61.52;103857.16;5057535;28;20435;-66
2022/03/18 07:52:35;;;;;;;19.77;8.60;;;;;;;9.41;61.11;103849.72;5057511;28;20186;-67
2022/03/18 07:55:01;;;;;;;13.13;7.20;;;;;;;8.90;62.20;103856.84;5057914;28;20219;-66
2022/03/18 07:57:27;;;;;;;10.37;8.87;;;;;;;8.97;61.55;103857.25;5057780;28;20570;-65
2022/03/18 07:59:52;;;;;;;13.17;8.20;;;;;;;9.06;61.33;103858.75;5057466;28;20692;-64
2022/03/18 08:02:18;;;;;;;12.13;8.17;;;;;;;8.95;61.72;103862.34;5057998;28;20464;-65
2022/03/18 08:04:43;;;;;;;9.93;8.30;;;;;;;8.69;62.14;103866.69;5057868;28;20181;-64
2022/03/18 08:07:09;;;;;;;11.60;8.30;;;;;;;9.14;61.09;103869.66;5057712;28;20173;-64
2022/03/18 08:09:34;;;;;;;12.33;8.70;;;;;;;8.99;61.01;103877.38;5057395;28;20185;-64
2022/03/18 08:12:00;;;;;;;14.57;9.00;;;;;;;9.16;61.30;103873.28;5057811;28;20181;-63
2022/03/18 08:14:25;;;;;;;13.63;8.60;;;;;;;9.48;60.55;103884.00;5057928;28;20205;-64
2022/03/18 08:16:51;;;;;;;11.70;7.20;;;;;;;9.40;59.37;103896.50;5057708;28;20558;-64
2022/03/18 08:19:16;;;;;;;10.43;8.03;;;;;;;9.30;60.12;103905.44;5057699;28;20174;-65
2022/03/18 08:21:42;;;;;;;12.00;7.87;;;;;;;9.46;59.76;103909.94;5058112;28;20173;-63
2022/03/18 08:24:08;;;;;;;16.80;8.87;;;;;;;9.69;59.13;103910.53;5057116;28;20457;-64
2022/03/18 08:26:36;;;;;;;10.20;7.70;;;;;;;9.37;59.22;103918.03;5057253;28;20420;-64
2022/03/18 08:29:03;;;;;;;11.63;8.07;;;;;;;10.10;57.79;103920.06;5057237;28;20830;-63
2022/03/18 08:31:29;;;;;;;12.80;7.97;;;;;;;12.15;53.43;103923.38;5056898;28;20446;-66
2022/03/18 08:33:55;;;;;;;13.33;7.90;;;;;;;13.94;48.71;103921.91;5057234;28;20857;-64
2022/03/18 08:36:20;;;;;;;13.50;7.83;;;;;;;13.61;47.64;103927.34;5059430;28;20411;-63
2022/03/18 08:38:46;;;;;;;10.23;7.37;;;;;;;13.31;47.78;103938.09;5058793;28;20211;-66
2022/03/18 08:41:12;;;;;;;9.47;7.53;;;;;;;14.44;46.12;103925.06;5059770;28;20201;-65
2022/03/18 08:43:38;;;;;;;10.67;7.70;;;;;;;15.71;42.72;103932.09;5059983;28;20185;-66
2022/03/18 08:46:03;;;;;;;9.40;7.00;;;;;;;14.34;45.22;103942.94;5052992;28;20404;-65
2022/03/18 08:48:28;;;;;;;10.80;7.53;;;;;;;14.93;43.91;103935.97;5054863;28;20182;-65
2022/03/18 08:50:54;;;;;;;14.63;9.63;;;;;;;14.66;43.98;103933.91;5060762;28;20207;-64
2022/03/18 08:53:19;;;;;;;17.13;8.20;;;;;;;16.53;40.65;103920.31;5060016;28;20177;-66
2022/03/18 08:55:44;;;;;;;11.63;7.97;;;;;;;16.53;40.07;103935.22;5059970;28;20528;-65
2022/03/18 08:58:10;;;;;;;11.43;7.97;;;;;;;16.14;40.81;103934.72;5058420;28;20201;-65
2022/03/18 09:00:36;;;;;;;8.80;7.87;;;;;;;16.34;39.54;103934.53;5058063;28;20226;-66
2022/03/18 09:03:01;;;;;;;12.80;8.37;;;;;;;16.86;39.70;103931.97;5056635;28;20177;-66
2022/03/18 09:05:26;;;;;;;10.20;7.10;;;;;;;17.16;38.90;103930.44;5059569;28;20219;-65
2022/03/18 09:07:52;;;;;;;10.70;7.97;;;;;;;17.08;38.49;103936.31;5059367;28;20173;-67
2022/03/18 09:10:17;;;;;;;9.03;8.10;;;;;;;17.94;37.51;103943.44;5060219;28;20239;-66
2022/03/18 09:12:50;;;;;;;10.73;8.03;;;;;;;18.21;37.44;103950.41;5059964;28;20162;-67
2022/03/18 09:15:18;;;;;;;11.70;7.70;;;;;;;16.52;39.55;103963.31;5060569;28;20296;-66
2022/03/18 09:17:43;;;;;;;10.47;7.80;;;;;;;18.11;37.29;103960.69;5060402;28;20459;-65
2022/03/18 09:20:09;;;;;;;11.43;8.00;;;;;;;16.17;40.29;103976.94;5061087;28;20816;-66
2022/03/18 09:22:35;;;;;;;10.60;7.97;;;;;;;17.09;39.07;103977.63;5060527;28;20551;-65
2022/03/18 09:25:00;;;;;;;12.47;8.70;;;;;;;15.16;42.45;103987.75;5060613;28;20443;-66
2022/03/18 09:27:26;;;;;;;11.67;8.20;;;;;;;17.29;39.16;103975.66;5043453;28;20188;-64
2022/03/18 09:29:51;;;;;;;11.80;8.80;;;;;;;16.97;38.82;103978.09;5060222;28;20170;-65
2022/03/18 09:32:16;;;;;;;11.37;8.50;;;;;;;17.55;38.68;103971.25;5060595;28;20188;-66
2022/03/18 09:34:42;;;;;;;12.00;8.70;;;;;;;17.58;38.48;103976.63;5060835;28;20212;-65
2022/03/18 09:37:08;;;;;;;10.47;8.03;;;;;;;18.52;36.98;103987.44;5060420;28;20316;-65
2022/03/18 09:39:33;;;;;;;10.87;7.63;;;;;;;18.06;36.88;103991.34;5060231;28;20452;-65
2022/03/18 09:41:58;;;;;;;10.97;8.30;;;;;;;19.21;36.42;103989.28;5043018;28;20181;-65
2022/03/18 09:44:24;;;;;;;13.10;8.27;;;;;;;19.21;34.73;103989.28;5059198;28;20235;-65
2022/03/18 09:46:51;;;;;;;12.27;8.43;;;;;;;18.71;36.23;103990.56;5059925;28;20174;-66
2022/03/18 09:49:18;;;;;;;11.67;8.40;;;;;;;19.42;35.61;103989.81;5060466;28;20246;-67
2022/03/18 09:51:45;;;;;;;11.60;8.47;;;;;;;19.41;35.08;103989.78;5060140;28;20686;-66
2022/03/18 09:54:11;;;;;;;13.27;8.97;;;;;;;19.99;34.25;104000.88;5060163;28;20528;-68
2022/03/18 09:56:44;;;;;;;10.50;8.03;;;;;;;19.00;35.55;103999.31;5059790;28;20495;-67
2022/03/18 09:59:10;;;;;;;12.87;8.60;;;;;;;19.10;36.37;103997.81;5059821;28;20600;-66
2022/03/18 10:01:35;;;;;;;11.97;8.20;;;;;;;19.62;35.02;103999.97;5059461;28;20506;-67
2022/03/18 10:04:07;;;;;;;11.90;8.30;;;;;;;20.76;33.62;103993.66;5060006;28;20252;-67
2022/03/18 10:06:34;;;;;;;11.50;8.30;;;;;;;18.97;36.06;104009.84;5059789;28;20174;-66
2022/03/18 10:09:00;;;;;;;9.83;8.20;;;;;;;18.43;36.84;104012.66;5059812;28;20832;-66
2022/03/18 10:11:28;;;;;;;12.17;8.80;;;;;;;18.67;36.12;104008.09;5059063;28;20809;-66
2022/03/18 10:14:01;;;;;;;12.30;8.77;;;;;;;18.92;36.47;104010.56;5059817;28;20419;-67
2022/03/18 10:16:41;;;;;;;11.53;9.30;;;;;;;18.67;36.46;104009.84;5059562;28;20427;-64
2022/03/18 10:19:08;;;;;;;11.57;8.97;;;;;;;18.48;36.61;104006.69;5059086;28;20562;-66
2022/03/18 10:21:49;;;;;;;10.83;8.77;;;;;;;18.86;36.08;104008.59;5059577;28;20909;-65
2022/03/18 10:24:14;;;;;;;9.80;8.37;;;;;;;18.08;37.43;104013.41;5059645;28;20506;-66
2022/03/18 10:26:40;;;;;;;11.83;9.30;;;;;;;18.63;36.76;104007.97;5059290;28;20868;-66
2022/03/18 10:29:05;;;;;;;11.03;8.63;;;;;;;18.74;36.57;104011.81;5059136;28;20192;-67
2022/03/18 10:31:31;;;;;;;12.23;10.73;;;;;;;18.25;37.55;104023.59;5059359;28;20181;-66
2022/03/18 10:37:11;;;;;;;15.00;10.97;;;;;;;18.43;37.30;104015.31;5058598;28;20485;-67
2022/03/18 10:39:39;;;;;;;11.93;8.90;;;;;;;18.77;37.00;104006.59;5058837;28;20859;-67
2022/03/18 10:42:07;;;;;;;13.93;9.60;;;;;;;18.67;37.25;104017.75;5059050;28;20422;-67
2022/03/18 10:44:47;;;;;;;14.63;9.37;;;;;;;19.01;36.51;104021.38;5059158;28;20419;-66
2022/03/18 10:47:28;;;;;;;12.77;9.20;;;;;;;18.54;37.07;104020.91;5058876;28;20435;-65
2022/03/18 10:50:13;;;;;;;10.37;8.90;;;;;;;19.32;36.16;104017.78;5058807;28;20412;-65
2022/03/18 10:52:45;;;;;;;15.13;11.23;;;;;;;19.48;35.99;104005.84;5058527;28;20419;-68
2022/03/18 10:55:25;;;;;;;11.23;8.23;;;;;;;17.65;39.82;104009.38;5057702;28;20413;-67
2022/03/18 10:57:51;;;;;;;9.57;8.63;;;;;;;18.81;37.33;103994.38;5058575;28;20460;-67
2022/03/18 11:00:22;;;;;;;12.20;9.50;;;;;;;19.89;36.31;103994.50;5058516;28;20856;-67
2022/03/18 11:02:49;;;;;;;11.80;9.40;;;;;;;18.12;38.23;104007.38;5059028;28;20428;-67
2022/03/18 11:05:20;;;;;;;16.80;9.37;;;;;;;19.28;36.80;104007.09;5058726;28;20412;-66
2022/03/18 11:07:46;;;;;;;10.83;8.70;;;;;;;18.82;37.61;104015.56;5058666;28;20510;-67
2022/03/18 11:12:57;;;;;;;13.53;8.90;;;;;;;19.25;36.58;104014.94;5058464;28;20431;-67
2022/03/18 11:15:25;;;;;;;13.03;8.87;;;;;;;18.71;37.92;104014.34;5057906;28;20424;-67
2022/03/18 11:17:51;;;;;;;15.77;8.97;;;;;;;20.35;35.43;104010.50;5058155;28;20204;-64
2022/03/18 11:20:20;;;;;;;12.63;9.20;;;;;;;20.38;35.39;104007.91;5058431;28;20594;-66
2022/03/18 11:22:48;;;;;;;10.40;9.07;;;;;;;19.23;36.53;104011.34;5058623;28;20821;-67
2022/03/18 11:25:14;;;;;;;12.83;9.43;;;;;;;18.80;37.86;104014.63;5058691;28;20830;-67
2022/03/18 11:27:41;;;;;;;11.37;8.97;;;;;;;19.62;36.24;104007.91;5057193;28;20825;-66
2022/03/18 11:30:17;;;;;;;11.90;8.83;;;;;;;19.43;37.23;104022.44;5058719;28;20462;-67
2022/03/18 11:32:42;;;;;;;12.30;9.00;;;;;;;19.84;36.08;104020.84;5058270;28;20412;-67